createdAt,value
2022-08-18T00:04:55.268Z,11.27
2022-08-18T00:10:01.315Z,6.93
2022-08-18T00:15:06.682Z,8.30
2022-08-18T00:20:15.386Z,9.25
2022-08-18T00:25:19.805Z,6.38
2022-08-18T00:30:22.647Z,8.90
2022-08-18T00:35:29.404Z,5.88
2022-08-18T00:40:40.992Z,5.82
2022-08-18T00:45:43.820Z,7.32
2022-08-18T00:50:58.934Z,9.43
2022-08-18T00:56:08.657Z,9.27
2022-08-18T01:01:14.078Z,6.10
2022-08-18T01:06:32.381Z,6.80
2022-08-18T01:11:37.514Z,7.63
2022-08-18T01:16:58.249Z,7.57
2022-08-18T01:22:10.648Z,8.48
2022-08-18T01:27:17.988Z,8.90
2022-08-18T01:32:23.125Z,6.97
2022-08-18T01:37:25.729Z,9.00
2022-08-18T01:42:28.068Z,8.80
2022-08-18T01:47:33.012Z,12.52
2022-08-18T01:52:50.995Z,10.60
2022-08-18T01:57:53.302Z,12.88
2022-08-18T02:03:01.897Z,11.45
2022-08-18T02:08:06.458Z,12.90
2022-08-18T02:13:09.372Z,10.73
2022-08-18T02:18:25.909Z,8.98
2022-08-18T02:23:49.256Z,11.10
2022-08-18T02:28:56.060Z,8.18
2022-08-18T02:33:59.637Z,10.30
2022-08-18T02:39:01.846Z,12.07
2022-08-18T02:44:06.407Z,9.95
2022-08-18T02:49:08.667Z,17.90
2022-08-18T02:54:11.616Z,15.98
2022-08-18T02:59:16.208Z,11.32
2022-08-18T03:04:29.463Z,12.40
2022-08-18T03:09:34.167Z,14.85
2022-08-18T03:14:37.957Z,8.43
2022-08-18T03:19:40.671Z,4.43
2022-08-18T03:24:45.584Z,9.27
2022-08-18T03:29:47.777Z,8.20
2022-08-18T03:34:49.996Z,17.65
2022-08-18T03:39:52.966Z,12.02
2022-08-18T03:44:55.394Z,14.05
2022-08-18T03:49:57.602Z,9.60
2022-08-18T03:55:00.271Z,9.20
2022-08-18T04:00:05.965Z,8.73
2022-08-18T04:05:11.133Z,10.82
2022-08-18T04:10:19.231Z,9.57
2022-08-18T04:15:21.997Z,8.48
2022-08-18T04:20:24.443Z,9.60
2022-08-18T04:25:32.157Z,7.93
2022-08-18T04:30:34.932Z,7.63
2022-08-18T04:35:37.016Z,8.88
2022-08-18T04:40:39.265Z,6.90
2022-08-18T04:45:48.088Z,12.43
2022-08-18T04:50:50.271Z,14.48
2022-08-18T04:55:55.044Z,12.82
2022-08-18T05:00:59.168Z,11.02
2022-08-18T05:06:04.676Z,12.55
2022-08-18T05:11:06.888Z,9.57
2022-08-18T05:16:14.003Z,13.90
2022-08-18T05:21:21.754Z,12.95
2022-08-18T05:26:35.180Z,15.55
2022-08-18T05:31:37.381Z,9.93
2022-08-18T05:36:48.680Z,8.90
2022-08-18T05:41:55.364Z,13.85
2022-08-18T05:47:06.630Z,10.02
2022-08-18T05:52:20.583Z,16.38
2022-08-18T05:57:25.574Z,11.23
2022-08-18T06:02:52.487Z,10.30
2022-08-18T06:07:59.765Z,9.55
2022-08-18T06:13:02.665Z,10.90
2022-08-18T06:18:17.230Z,9.77
2022-08-18T06:23:41.225Z,7.70
2022-08-18T06:29:06.460Z,8.85
2022-08-18T06:34:46.941Z,7.97
2022-08-18T06:39:52.002Z,7.75
2022-08-18T06:45:12.943Z,6.47
2022-08-18T06:50:47.661Z,7.20
2022-08-18T06:55:51.871Z,8.43
2022-08-18T07:00:56.035Z,8.93
2022-08-18T07:05:58.646Z,7.53
2022-08-18T07:11:27.197Z,6.47
2022-08-18T07:16:54.467Z,6.50
2022-08-18T07:22:30.122Z,5.70
2022-08-18T07:27:49.352Z,6.13
2022-08-18T07:33:24.236Z,5.65
2022-08-18T07:38:43.003Z,5.47
2022-08-18T07:43:57.580Z,3.78
2022-08-18T07:49:01.532Z,6.18
2022-08-18T07:54:59.490Z,6.28
2022-08-18T08:00:11.233Z,4.50
2022-08-18T08:05:55.443Z,5.97
2022-08-18T08:11:28.934Z,7.63
2022-08-18T08:17:04.471Z,5.25
2022-08-18T08:22:48.584Z,3.47
2022-08-18T08:28:20.554Z,4.85
2022-08-18T08:33:33.756Z,5.25
2022-08-18T08:38:42.432Z,3.35
2022-08-18T08:43:53.606Z,3.40
2022-08-18T08:49:19.302Z,3.58
2022-08-18T08:54:26.912Z,4.03
2022-08-18T09:05:08.041Z,3.03
2022-08-18T09:10:23.673Z,6.88
2022-08-18T09:15:47.217Z,3.88
2022-08-18T09:21:10.581Z,3.17
2022-08-18T09:26:39.032Z,3.42
2022-08-18T09:31:44.183Z,3.92
2022-08-18T09:37:04.022Z,4.65
2022-08-18T09:42:16.091Z,3.70
2022-08-18T09:47:22.015Z,7.35
2022-08-18T09:52:26.408Z,5.63
2022-08-18T09:57:30.138Z,4.63
2022-08-18T10:02:47.646Z,5.28
2022-08-18T10:08:03.575Z,5.80
2022-08-18T10:13:26.215Z,8.38
2022-08-18T10:18:46.234Z,5.03
2022-08-18T10:24:03.144Z,5.40
2022-08-18T10:29:38.425Z,6.15
2022-08-18T10:34:52.510Z,5.30
2022-08-18T10:40:01.119Z,5.45
2022-08-18T10:45:24.903Z,6.22
2022-08-18T10:50:30.906Z,3.97
2022-08-18T10:55:48.933Z,5.28
2022-08-18T11:01:09.248Z,4.30
2022-08-18T11:06:21.606Z,5.35
2022-08-18T11:11:33.211Z,5.03
2022-08-18T11:17:08.901Z,6.38
2022-08-18T11:27:53.597Z,4.90
2022-08-18T11:32:56.251Z,8.60
2022-08-18T11:38:04.675Z,4.47
2022-08-18T11:43:10.519Z,3.63
2022-08-18T11:48:25.133Z,4.07
2022-08-18T11:53:57.423Z,4.65
2022-08-18T11:59:04.227Z,5.63
2022-08-18T12:04:14.491Z,5.40
2022-08-18T12:09:45.493Z,6.40
2022-08-18T12:15:25.627Z,5.60
2022-08-18T12:20:31.946Z,7.82
2022-08-18T12:25:34.119Z,4.15
2022-08-18T12:30:36.250Z,6.82
2022-08-18T12:35:44.911Z,3.53
2022-08-18T12:40:47.272Z,4.90
2022-08-18T12:45:49.491Z,6.20
2022-08-18T12:50:55.849Z,4.70
2022-08-18T12:56:01.585Z,3.65
2022-08-18T13:01:04.785Z,3.63
2022-08-18T13:06:07.184Z,4.40
2022-08-18T13:11:15.233Z,4.38
2022-08-18T13:16:39.012Z,5.95
2022-08-18T13:21:47.754Z,3.65
2022-08-18T13:26:51.838Z,6.32
2022-08-18T13:32:00.608Z,5.93
2022-08-18T13:37:02.808Z,3.00
2022-08-18T13:42:21.563Z,7.75
2022-08-18T13:47:29.401Z,4.88
2022-08-18T13:52:34.365Z,2.88
2022-08-18T13:57:38.954Z,2.88
2022-08-18T14:02:42.449Z,2.63
2022-08-18T14:07:46.094Z,3.05
2022-08-18T14:12:48.431Z,4.82
2022-08-18T14:17:52.227Z,3.20
2022-08-18T14:23:21.601Z,1.58
2022-08-18T14:28:26.148Z,3.13
2022-08-18T14:33:49.777Z,3.28
2022-08-18T14:38:52.528Z,4.70
2022-08-18T14:44:12.609Z,3.15
2022-08-18T14:49:15.956Z,2.75
2022-08-18T14:54:32.367Z,2.97
2022-08-18T14:59:37.937Z,2.78
2022-08-18T15:04:53.201Z,4.70
2022-08-18T15:10:16.099Z,2.95
2022-08-18T15:15:19.442Z,4.10
2022-08-18T15:20:29.620Z,5.18
2022-08-18T15:25:44.874Z,3.90
2022-08-18T15:30:51.059Z,4.23
2022-08-18T15:35:54.202Z,2.95
2022-08-18T15:41:06.319Z,3.15
2022-08-18T15:46:11.630Z,6.70
2022-08-18T15:51:18.715Z,5.03
2022-08-18T15:56:25.826Z,3.22
2022-08-18T16:01:32.158Z,3.42
2022-08-18T16:06:37.253Z,3.60
2022-08-18T16:11:41.852Z,2.20
2022-08-18T16:16:44.030Z,2.38
2022-08-18T16:21:46.496Z,2.80
2022-08-18T16:26:48.636Z,4.53
2022-08-18T16:31:51.289Z,3.13
2022-08-18T16:36:54.677Z,1.98
2022-08-18T16:41:57.069Z,2.45
2022-08-18T16:47:01.674Z,2.20
2022-08-18T16:52:04.099Z,2.97
2022-08-18T16:57:07.120Z,2.92
2022-08-18T17:02:35.434Z,2.08
2022-08-18T17:07:38.045Z,1.55
2022-08-18T17:12:40.204Z,2.60
2022-08-18T17:17:42.500Z,1.83
2022-08-18T17:22:44.851Z,1.90
2022-08-18T17:27:49.487Z,1.90
2022-08-18T17:33:08.438Z,1.40
2022-08-18T17:38:40.457Z,1.73
2022-08-18T17:49:45.551Z,1.83
2022-08-18T17:54:52.364Z,2.25
2022-08-18T18:00:06.330Z,1.83
2022-08-18T18:05:19.705Z,1.10
2022-08-18T18:11:02.278Z,1.95
2022-08-18T18:16:45.347Z,1.20
2022-08-18T18:22:06.406Z,1.33
2022-08-18T18:27:47.427Z,2.05
2022-08-18T18:33:13.243Z,1.17
2022-08-18T18:38:35.329Z,1.65
2022-08-18T18:43:42.185Z,1.63
2022-08-18T18:48:51.941Z,1.10
2022-08-18T18:54:22.113Z,1.60
2022-08-18T19:00:02.614Z,1.33
2022-08-18T19:05:11.695Z,0.95
2022-08-18T19:10:39.228Z,1.45
2022-08-18T19:15:43.167Z,0.98
2022-08-18T19:21:45.972Z,1.00
2022-08-18T19:26:18.997Z,1.35
2022-08-18T19:31:37.284Z,1.23
2022-08-18T19:37:01.809Z,2.45
2022-08-18T19:42:37.336Z,1.83
2022-08-18T19:47:49.480Z,1.33
2022-08-18T19:53:12.508Z,1.35
2022-08-18T19:58:49.139Z,1.00
2022-08-18T20:09:17.012Z,2.03
2022-08-18T20:14:20.335Z,0.98
2022-08-18T20:19:47.086Z,1.25
2022-08-18T20:25:06.205Z,1.55
2022-08-18T20:30:20.454Z,1.02
2022-08-18T20:35:31.971Z,1.02
2022-08-18T20:40:46.780Z,1.63
2022-08-18T20:45:56.795Z,1.23
2022-08-18T20:51:11.336Z,1.38
2022-08-18T20:56:46.511Z,1.30
2022-08-18T21:01:55.382Z,2.03
2022-08-18T21:06:57.574Z,1.10
2022-08-18T21:12:22.794Z,1.52
2022-08-18T21:17:27.644Z,1.33
2022-08-18T21:22:30.762Z,1.55
2022-08-18T21:27:36.163Z,3.10
2022-08-18T21:32:39.625Z,1.55
2022-08-18T21:37:42.002Z,2.28
2022-08-18T21:42:45.566Z,1.60
2022-08-18T21:47:56.759Z,3.20
2022-08-18T21:53:05.523Z,1.90
2022-08-18T21:58:33.751Z,4.07
2022-08-18T22:03:59.565Z,2.53
2022-08-18T22:09:28.772Z,1.87
2022-08-18T22:14:53.930Z,2.72
2022-08-18T22:20:36.553Z,2.90
2022-08-18T22:25:39.672Z,2.85
2022-08-18T22:30:42.164Z,1.75
2022-08-18T22:35:52.513Z,2.53
2022-08-18T22:40:54.755Z,2.45
2022-08-18T22:45:57.039Z,2.47
2022-08-18T22:50:59.704Z,2.67
2022-08-18T22:56:05.863Z,3.35
2022-08-18T23:01:10.512Z,2.78
2022-08-18T23:06:12.847Z,2.53
2022-08-18T23:11:15.084Z,3.58
2022-08-18T23:16:31.430Z,4.32
2022-08-18T23:21:35.774Z,5.15
2022-08-18T23:26:38.370Z,6.78
2022-08-18T23:31:43.475Z,4.70
2022-08-18T23:36:52.631Z,4.27
2022-08-18T23:41:55.386Z,4.82
2022-08-18T23:46:59.125Z,4.07
2022-08-18T23:52:01.314Z,4.53
2022-08-18T23:57:03.540Z,4.47
